Time;durP1;ratioP1;P1;durP2;ratioP2;P2;SDS_P1;SDS_P2;PMS_P1;PMS_P2;Temp;Humidity;BMP_temperature;BMP_pressure;BME280_temperature;BME280_humidity;BME280_pressure;Samples;Min_cycle;Max_cycle;Signal;HPM_P1;HPM_P2
2021/08/23 00:00:12;;;;;;;18.47;8.63;;;;;;;17.96;68.63;100914.97;125304;1102;104255;-78
2021/08/23 00:03:02;;;;;;;19.93;9.00;;;;;;;18.01;68.84;100915.02;125253;1102;104223;-79
2021/08/23 00:05:33;;;;;;;17.90;8.37;;;;;;;18.06;68.61;100905.38;125286;1100;104401;-78
2021/08/23 00:08:04;;;;;;;18.83;8.90;;;;;;;18.07;68.89;100906.25;125277;1102;104778;-79
2021/08/23 00:10:35;;;;;;;19.30;9.73;;;;;;;18.09;68.79;100905.41;125267;1102;104387;-79
2021/08/23 00:13:05;;;;;;;21.40;9.73;;;;;;;18.03;69.01;100904.42;126192;1099;104246;-80
2021/08/23 00:15:39;;;;;;;19.43;8.90;;;;;;;17.95;68.77;100910.55;126313;1099;104146;-78
2021/08/23 00:18:09;;;;;;;18.10;9.03;;;;;;;17.89;69.10;100899.86;126331;1098;104168;-79
2021/08/23 00:20:44;;;;;;;17.60;8.57;;;;;;;17.87;69.04;100901.59;125151;1099;104614;-78
2021/08/23 00:23:16;;;;;;;18.30;8.63;;;;;;;17.83;69.29;100904.18;126299;1099;104188;-79
2021/08/23 00:25:47;;;;;;;17.83;8.87;;;;;;;17.80;69.54;100907.67;126326;1099;104169;-79
2021/08/23 00:28:18;;;;;;;19.17;9.10;;;;;;;17.77;69.39;100904.98;125403;1099;104168;-79
2021/08/23 00:30:49;;;;;;;18.13;8.50;;;;;;;17.75;69.77;100917.36;125557;1099;104165;-78
2021/08/23 00:33:20;;;;;;;19.73;9.23;;;;;;;17.69;69.82;100909.31;125366;1099;105521;-79
2021/08/23 00:35:52;;;;;;;20.03;9.90;;;;;;;17.65;70.10;100918.97;125323;1102;104322;-79
2021/08/23 00:38:23;;;;;;;19.70;9.67;;;;;;;17.60;70.11;100915.37;126333;1099;104194;-78
2021/08/23 00:40:53;;;;;;;20.20;9.40;;;;;;;17.57;70.07;100923.30;126319;1099;104248;-79
2021/08/23 00:43:24;;;;;;;17.90;8.77;;;;;;;17.54;70.13;100926.78;125324;1099;104162;-79
2021/08/23 00:45:55;;;;;;;19.53;9.03;;;;;;;17.53;70.33;100924.11;125493;1099;104316;-79
2021/08/23 00:48:25;;;;;;;17.87;8.80;;;;;;;17.51;70.33;100924.09;126302;1099;104191;-78
2021/08/23 00:50:56;;;;;;;17.60;8.60;;;;;;;17.53;70.76;100919.72;125201;1102;104188;-78
2021/08/23 00:53:26;;;;;;;20.60;9.10;;;;;;;17.56;70.46;100919.76;126330;1099;104175;-78
2021/08/23 00:55:57;;;;;;;18.67;8.60;;;;;;;17.59;70.34;100926.84;126298;1099;104172;-78
2021/08/23 00:58:29;;;;;;;16.37;8.87;;;;;;;17.58;70.62;100920.66;126287;1099;104306;-78
2021/08/23 01:01:04;;;;;;;22.00;9.57;;;;;;;17.54;70.99;100929.44;126333;1099;104807;-78
2021/08/23 01:03:40;;;;;;;19.20;9.10;;;;;;;17.45;70.71;100929.30;126237;1099;104223;-77
2021/08/23 01:06:12;;;;;;;17.50;8.70;;;;;;;17.38;70.46;100930.11;126341;1099;104787;-78
2021/08/23 01:08:45;;;;;;;21.40;8.80;;;;;;;17.34;70.79;100936.22;125558;1099;104234;-78
2021/08/23 01:11:18;;;;;;;17.47;8.70;;;;;;;17.31;70.83;100930.88;126311;1099;104139;-78
2021/08/23 01:13:51;;;;;;;19.60;9.37;;;;;;;17.28;71.32;100917.56;125358;1102;104373;-77
2021/08/23 01:16:22;;;;;;;20.48;9.40;;;;;;;17.27;70.87;100919.34;125346;1099;104143;-80
2021/08/23 01:18:54;;;;;;;18.33;9.27;;;;;;;17.25;71.14;100927.27;126341;1099;104146;-78
2021/08/23 01:21:30;;;;;;;23.63;9.83;;;;;;;17.23;71.54;100931.67;126312;1099;104204;-80
2021/08/23 01:24:05;;;;;;;20.10;9.07;;;;;;;17.23;71.15;100934.32;125326;1099;104226;-78
2021/08/23 01:26:41;;;;;;;17.90;8.90;;;;;;;17.19;71.69;100932.48;126335;1099;104258;-78
2021/08/23 01:29:17;;;;;;;17.40;8.80;;;;;;;17.12;72.01;100927.94;126334;1099;104171;-79
2021/08/23 01:31:54;;;;;;;19.63;8.87;;;;;;;17.09;71.89;100919.94;125257;1099;104156;-79
2021/08/23 01:34:26;;;;;;;17.77;9.00;;;;;;;17.12;71.33;100922.63;126218;1099;104137;-78
2021/08/23 01:36:57;;;;;;;19.20;8.63;;;;;;;17.19;71.84;100916.56;125164;1099;104567;-79
2021/08/23 01:39:28;;;;;;;19.20;9.27;;;;;;;17.29;71.88;100914.94;126346;1099;104136;-78
2021/08/23 01:42:00;;;;;;;18.17;8.57;;;;;;;17.36;71.65;100908.86;126301;1099;104274;-78
2021/08/23 01:44:31;;;;;;;17.97;8.70;;;;;;;17.40;71.70;100912.44;126302;1099;104140;-77
2021/08/23 01:47:01;;;;;;;18.60;8.60;;;;;;;17.45;71.75;100915.16;126334;1099;104169;-78
2021/08/23 01:49:32;;;;;;;20.20;8.90;;;;;;;17.42;71.85;100918.65;126326;1099;104625;-78
2021/08/23 01:52:02;;;;;;;17.70;8.27;;;;;;;17.42;71.54;100910.69;126330;1099;104150;-78
2021/08/23 01:54:33;;;;;;;20.90;8.63;;;;;;;17.41;71.70;100908.93;126245;1099;104149;-80
2021/08/23 01:57:04;;;;;;;19.77;9.20;;;;;;;17.45;71.68;100907.20;126342;1099;104621;-78
2021/08/23 01:59:35;;;;;;;17.00;8.40;;;;;;;17.52;71.53;100909.96;126341;1099;104319;-79
2021/08/23 02:02:05;;;;;;;16.30;8.10;;;;;;;17.60;72.03;100908.30;126289;1099;104158;-79
2021/08/23 02:04:36;;;;;;;22.10;9.27;;;;;;;17.70;71.68;100919.03;125221;1099;104275;-79
2021/08/23 02:07:07;;;;;;;18.53;9.30;;;;;;;17.74;71.65;100921.75;126354;1099;104126;-79
2021/08/23 02:09:38;;;;;;;20.60;9.13;;;;;;;17.75;71.55;100910.27;126318;1099;104192;-78
2021/08/23 02:12:10;;;;;;;19.67;9.10;;;;;;;17.75;71.68;100917.36;125424;1099;104644;-79
2021/08/23 02:14:41;;;;;;;18.97;9.17;;;;;;;17.76;71.84;100921.77;125110;1102;104357;-79
2021/08/23 02:17:11;;;;;;;19.20;8.27;;;;;;;17.74;71.66;100924.41;125169;1099;104248;-79
2021/08/23 02:19:41;;;;;;;17.40;8.63;;;;;;;17.75;71.58;100925.31;125171;1099;104159;-78
2021/08/23 02:22:13;;;;;;;18.20;9.10;;;;;;;17.84;71.69;100921.87;125292;1100;104245;-78
2021/08/23 02:24:44;;;;;;;19.00;8.50;;;;;;;17.89;71.71;100921.10;125173;1099;104162;-79
2021/08/23 02:27:16;;;;;;;17.90;8.63;;;;;;;17.98;71.58;100927.39;125374;1099;104143;-78
2021/08/23 02:29:47;;;;;;;19.00;8.87;;;;;;;18.03;71.55;100921.27;126328;1099;104157;-78
2021/08/23 02:32:18;;;;;;;20.60;8.93;;;;;;;18.06;71.67;100926.62;125171;1099;104598;-79
2021/08/23 02:34:49;;;;;;;17.87;8.50;;;;;;;18.07;71.54;100928.37;126247;1099;104226;-79
2021/08/23 02:37:23;;;;;;;18.05;9.10;;;;;;;18.08;71.64;100934.60;126359;1099;104595;-79
2021/08/23 02:39:55;;;;;;;18.23;8.93;;;;;;;18.09;71.47;100934.62;126268;1099;104182;-77
2021/08/23 02:42:26;;;;;;;17.67;8.57;;;;;;;18.11;71.47;100929.33;126333;1099;104198;-78
2021/08/23 02:44:58;;;;;;;17.17;8.10;;;;;;;18.16;71.56;100919.64;126168;1099;104154;-79
2021/08/23 02:47:28;;;;;;;18.67;8.67;;;;;;;18.17;71.79;100918.77;126320;1098;104195;-78
2021/08/23 02:50:00;;;;;;;19.07;8.77;;;;;;;18.15;71.67;100928.47;126293;1099;104168;-78
2021/08/23 02:52:31;;;;;;;17.40;9.03;;;;;;;18.08;71.29;100924.86;126314;1099;104156;-76
2021/08/23 02:55:02;;;;;;;16.97;9.00;;;;;;;18.02;71.34;100924.78;126254;1099;104243;-78
2021/08/23 02:57:33;;;;;;;20.07;8.40;;;;;;;18.01;71.37;100927.42;126273;1099;109434;-79
2021/08/23 03:00:05;;;;;;;18.83;8.43;;;;;;;18.02;71.51;100930.09;126312;1099;104227;-79
2021/08/23 03:02:37;;;;;;;21.27;8.28;;;;;;;18.08;71.42;100930.17;126350;1099;104252;-78
2021/08/23 03:05:11;;;;;;;19.63;8.73;;;;;;;18.12;71.47;100932.00;125306;1099;104140;-78
2021/08/23 03:07:42;;;;;;;16.90;8.47;;;;;;;18.17;71.66;100929.40;126312;1097;104137;-78
2021/08/23 03:10:13;;;;;;;20.23;9.40;;;;;;;18.21;71.54;100933.84;126293;1099;104153;-78
2021/08/23 03:12:43;;;;;;;16.80;8.53;;;;;;;18.23;71.60;100933.87;126345;1099;104284;-78
2021/08/23 03:15:14;;;;;;;21.20;9.63;;;;;;;18.21;71.28;100932.97;126327;1098;104242;-78
2021/08/23 03:17:45;;;;;;;21.90;9.27;;;;;;;18.19;71.56;100932.95;126194;1098;107567;-78
2021/08/23 03:20:15;;;;;;;17.90;8.63;;;;;;;18.21;71.44;100939.16;126287;1099;104615;-78
2021/08/23 03:22:46;;;;;;;22.43;8.73;;;;;;;18.21;71.52;100936.50;126323;1099;104162;-78
2021/08/23 03:25:17;;;;;;;18.97;9.03;;;;;;;18.24;71.55;100935.66;126350;1099;104205;-77
2021/08/23 03:27:47;;;;;;;15.73;8.00;;;;;;;18.23;71.52;100933.87;125317;1099;104210;-80
2021/08/23 03:30:18;;;;;;;19.17;8.63;;;;;;;18.26;71.34;100931.25;126273;1099;104147;-79
2021/08/23 03:32:48;;;;;;;18.10;8.57;;;;;;;18.28;71.67;100935.71;126336;1099;104143;-79
2021/08/23 03:35:19;;;;;;;17.33;8.53;;;;;;;18.27;71.52;100936.58;126314;1099;104146;-78
2021/08/23 03:37:49;;;;;;;18.17;8.53;;;;;;;18.25;71.76;100940.11;126250;1099;105745;-78
2021/08/23 03:40:20;;;;;;;18.10;8.93;;;;;;;18.27;71.30;100941.89;126315;1099;104268;-78
2021/08/23 03:42:52;;;;;;;17.43;8.57;;;;;;;18.33;71.48;100943.73;126324;1099;104271;-78
2021/08/23 03:45:22;;;;;;;20.07;8.50;;;;;;;18.38;71.53;100946.44;126315;1099;104169;-78
2021/08/23 03:47:53;;;;;;;22.77;11.53;;;;;;;18.40;71.33;100944.68;126262;1099;104159;-79
2021/08/23 03:50:25;;;;;;;19.47;9.90;;;;;;;18.33;71.43;100949.92;126326;1099;104722;-78
2021/08/23 03:52:56;;;;;;;20.10;8.90;;;;;;;18.27;71.46;100956.95;126311;1099;104223;-78
2021/08/23 03:55:30;;;;;;;18.70;9.23;;;;;;;18.18;71.21;100963.03;125279;1099;104149;-79
2021/08/23 03:58:01;;;;;;;19.83;9.30;;;;;;;18.12;71.57;100968.27;126237;1099;104165;-78
2021/08/23 04:00:31;;;;;;;18.73;8.60;;;;;;;18.11;71.74;100964.73;126296;1098;104165;-78
2021/08/23 04:03:02;;;;;;;21.90;9.20;;;;;;;18.10;71.62;100962.94;125200;1099;104146;-77
2021/08/23 04:05:32;;;;;;;18.73;8.47;;;;;;;18.03;71.51;100958.45;126312;1099;104731;-79
2021/08/23 04:08:03;;;;;;;19.53;8.23;;;;;;;17.98;71.48;100975.17;126189;1099;104189;-78
2021/08/23 04:10:33;;;;;;;21.53;9.07;;;;;;;17.98;71.97;100969.87;126294;1099;104172;-79
2021/08/23 04:13:04;;;;;;;19.23;8.83;;;;;;;18.01;71.87;100973.44;126315;1098;104146;-78
2021/08/23 04:15:35;;;;;;;17.00;8.90;;;;;;;18.03;71.64;100979.69;125617;1099;104150;-77
2021/08/23 04:18:05;;;;;;;20.40;9.00;;;;;;;18.03;71.86;100971.72;126237;1099;104220;-78
2021/08/23 04:20:36;;;;;;;22.63;10.10;;;;;;;18.06;71.79;100968.19;125355;1099;104306;-76
2021/08/23 04:23:06;;;;;;;18.20;8.73;;;;;;;18.05;71.71;100966.42;126342;1099;104198;-77
2021/08/23 04:25:37;;;;;;;19.77;9.17;;;;;;;18.07;71.89;100959.36;126313;1099;104153;-77
2021/08/23 04:28:09;;;;;;;20.63;8.77;;;;;;;18.13;71.83;100959.44;126271;1099;104252;-81
2021/08/23 04:30:42;;;;;;;20.60;8.87;;;;;;;18.20;71.93;100955.99;126284;1099;104155;-78
2021/08/23 04:33:13;;;;;;;20.93;9.27;;;;;;;18.30;72.00;100949.02;126251;1099;104219;-79
2021/08/23 04:35:44;;;;;;;23.70;9.17;;;;;;;18.41;71.87;100954.45;125611;1099;104153;-78
2021/08/23 04:38:17;;;;;;;19.13;9.27;;;;;;;18.49;72.05;100956.29;126196;1099;104168;-80
2021/08/23 04:40:49;;;;;;;21.20;8.87;;;;;;;18.54;71.63;100956.34;125445;1099;104172;-79
2021/08/23 04:43:20;;;;;;;18.70;8.87;;;;;;;18.54;71.88;100961.65;126321;1099;104147;-80
2021/08/23 04:45:52;;;;;;;19.20;8.40;;;;;;;18.57;71.70;100958.14;125140;1099;104140;-80
2021/08/23 04:48:23;;;;;;;17.93;8.80;;;;;;;18.59;71.45;100948.41;125917;1099;104147;-78
2021/08/23 04:50:56;;;;;;;19.33;9.60;;;;;;;18.61;71.64;100952.88;126324;1099;104149;-79
2021/08/23 04:53:28;;;;;;;20.53;9.30;;;;;;;18.62;71.91;100952.02;125604;1099;104168;-79
2021/08/23 04:56:00;;;;;;;20.55;9.38;;;;;;;18.58;71.80;100947.53;126288;1099;104271;-78
2021/08/23 04:58:30;;;;;;;20.47;9.57;;;;;;;18.55;72.17;100946.63;126141;1099;104313;-79
2021/08/23 05:01:03;;;;;;;22.27;9.17;;;;;;;18.56;71.76;100943.98;126304;1098;104166;-79
2021/08/23 05:03:36;;;;;;;18.80;8.80;;;;;;;18.59;71.43;100946.66;126306;1099;104691;-80
2021/08/23 05:06:06;;;;;;;17.13;8.90;;;;;;;18.69;71.76;100940.54;126305;1099;104286;-79
2021/08/23 05:08:37;;;;;;;19.37;8.93;;;;;;;18.82;71.66;100943.31;126211;1099;104156;-79
2021/08/23 05:11:09;;;;;;;20.13;9.00;;;;;;;18.96;71.55;100939.03;126265;1098;104280;-79
2021/08/23 05:13:41;;;;;;;21.33;9.37;;;;;;;19.11;71.60;100940.06;125438;1099;104293;-79
2021/08/23 05:16:14;;;;;;;23.27;8.87;;;;;;;19.24;71.70;100933.92;126096;1098;104140;-79
2021/08/23 05:18:47;;;;;;;20.07;9.40;;;;;;;19.30;71.43;100938.41;126231;1099;104159;-77
2021/08/23 05:21:21;;;;;;;21.15;9.35;;;;;;;19.37;71.44;100935.80;125265;1099;104140;-78
2021/08/23 05:23:56;;;;;;;19.13;9.13;;;;;;;19.46;70.88;100934.07;125342;1099;104140;-79
2021/08/23 05:26:30;;;;;;;19.73;9.47;;;;;;;19.54;71.42;100932.34;125368;1099;104153;-78
2021/08/23 05:29:07;;;;;;;19.43;8.93;;;;;;;19.62;70.58;100935.05;125568;1099;104187;-79
2021/08/23 05:31:41;;;;;;;21.53;9.40;;;;;;;19.70;70.85;100941.32;126270;1099;104169;-80
2021/08/23 05:34:16;;;;;;;23.03;10.43;;;;;;;19.75;70.32;100943.10;126167;1099;104266;-77
2021/08/23 05:36:50;;;;;;;22.13;9.70;;;;;;;19.78;69.98;100944.94;126142;1099;104316;-77
2021/08/23 05:39:22;;;;;;;24.87;10.23;;;;;;;19.84;69.96;100944.09;125313;1102;104226;-77
2021/08/23 05:41:55;;;;;;;22.83;10.37;;;;;;;19.94;70.75;100943.23;126245;1099;104168;-75
2021/08/23 05:44:26;;;;;;;21.37;9.50;;;;;;;20.02;69.70;100945.92;126171;1099;104261;-76
2021/08/23 05:47:02;;;;;;;25.50;12.23;;;;;;;20.10;69.90;100945.08;126224;1099;104178;-77
2021/08/23 05:49:34;;;;;;;23.32;11.78;;;;;;;20.18;70.15;100941.53;125947;1099;104200;-76
2021/08/23 05:52:09;;;;;;;27.87;11.97;;;;;;;20.21;70.62;100937.12;126198;1099;104213;-77
2021/08/23 05:54:46;;;;;;;27.63;12.13;;;;;;;20.20;70.57;100943.33;126208;1099;104149;-77
2021/08/23 05:57:18;;;;;;;24.17;11.37;;;;;;;20.19;70.46;100938.87;126206;1099;104171;-77
2021/08/23 05:59:52;;;;;;;23.17;11.30;;;;;;;20.20;69.37;100931.79;126187;1099;104261;-76
2021/08/23 06:02:24;;;;;;;29.17;10.90;;;;;;;20.27;69.93;100928.23;125308;1099;104239;-77
2021/08/23 06:04:55;;;;;;;26.97;11.80;;;;;;;20.37;70.22;100916.72;125308;1099;104198;-76
2021/08/23 06:07:27;;;;;;;25.40;11.77;;;;;;;20.46;69.74;100921.20;125339;1099;104196;-76
2021/08/23 06:10:02;;;;;;;29.48;11.28;;;;;;;20.51;69.99;100930.08;125328;1099;104168;-77
2021/08/23 06:12:37;;;;;;;28.77;11.70;;;;;;;20.54;69.44;100924.75;126181;1098;104274;-77
2021/08/23 06:15:09;;;;;;;24.00;11.30;;;;;;;20.62;69.46;100928.31;125328;1099;104169;-76
2021/08/23 06:17:40;;;;;;;25.07;10.77;;;;;;;20.69;68.82;100931.02;125304;1102;104133;-76
2021/08/23 06:20:13;;;;;;;21.33;10.17;;;;;;;20.72;69.02;100929.23;126025;1098;104168;-76
2021/08/23 06:22:47;;;;;;;20.73;9.80;;;;;;;20.79;68.46;100935.48;125224;1099;104204;-78
2021/08/23 06:25:19;;;;;;;24.37;10.83;;;;;;;20.84;68.23;100941.70;125172;1099;104602;-77
2021/08/23 06:27:50;;;;;;;22.23;11.03;;;;;;;20.92;68.12;100941.70;126249;1099;104220;-78
2021/08/23 06:30:23;;;;;;;25.27;10.60;;;;;;;21.05;68.37;100943.48;126083;1099;104217;-77
2021/08/23 06:32:59;;;;;;;25.62;11.10;;;;;;;21.14;68.61;100946.13;126266;1099;104281;-77
2021/08/23 06:35:31;;;;;;;24.30;11.57;;;;;;;21.15;68.39;100941.70;126262;1099;104204;-76
2021/08/23 06:38:03;;;;;;;24.23;11.27;;;;;;;21.23;68.21;100944.36;126114;1099;104277;-75
2021/08/23 06:40:35;;;;;;;23.73;11.53;;;;;;;21.27;67.24;100944.35;125182;1099;104216;-76
2021/08/23 06:43:06;;;;;;;24.73;11.90;;;;;;;21.32;67.40;100945.23;126026;1099;104159;-76
2021/08/23 06:45:37;;;;;;;28.13;11.90;;;;;;;21.32;67.78;100942.55;125262;1099;104274;-76
2021/08/23 06:48:11;;;;;;;24.37;11.47;;;;;;;21.42;67.09;100937.20;126143;1099;104643;-76
2021/08/23 06:50:44;;;;;;;25.63;11.27;;;;;;;21.51;67.19;100938.09;126170;1099;104576;-76
2021/08/23 06:53:16;;;;;;;27.90;11.45;;;;;;;21.62;67.55;100945.20;126171;1099;104296;-74
2021/08/23 06:55:49;;;;;;;22.93;11.37;;;;;;;21.70;66.72;100940.72;126286;1099;104267;-76
2021/08/23 06:58:22;;;;;;;23.27;11.03;;;;;;;21.78;66.46;100944.24;125350;1099;104274;-75
2021/08/23 07:00:52;;;;;;;28.83;11.80;;;;;;;21.85;66.08;100950.47;125752;1099;104172;-75
2021/08/23 07:03:23;;;;;;;23.57;11.27;;;;;;;21.87;66.46;100940.66;126184;1099;104224;-76
2021/08/23 07:05:53;;;;;;;27.10;12.43;;;;;;;21.96;65.79;100945.97;126075;1099;104265;-75
2021/08/23 07:08:25;;;;;;;23.57;11.77;;;;;;;22.04;65.18;100937.92;126137;1099;104162;-77
2021/08/23 07:11:00;;;;;;;25.87;12.33;;;;;;;22.11;65.53;100942.35;125253;1102;105585;-77
2021/08/23 07:13:45;;;;;;;16.37;8.27;;;;;;;22.23;65.35;100939.59;126061;1099;104240;-76
2021/08/23 07:16:20;;;;;;;18.13;8.00;;;;;;;22.33;64.41;100942.24;125278;1099;104211;-76
2021/08/23 07:18:52;;;;;;;18.83;7.07;;;;;;;22.43;63.83;100942.17;125249;1099;104204;-76
2021/08/23 07:21:25;;;;;;;14.97;6.37;;;;;;;22.50;62.80;100936.80;125278;1099;104277;-77
2021/08/23 07:23:57;;;;;;;11.97;6.20;;;;;;;22.57;61.64;100936.74;125353;1099;104144;-77
2021/08/23 07:26:30;;;;;;;13.50;6.00;;;;;;;22.68;61.22;100938.47;126236;1099;104223;-76
2021/08/23 07:29:02;;;;;;;13.13;6.10;;;;;;;22.75;61.49;100935.73;125437;1099;104255;-76
2021/08/23 07:31:34;;;;;;;16.57;6.93;;;;;;;22.77;60.50;100930.38;125312;1099;104159;-76
2021/08/23 07:34:06;;;;;;;16.43;6.63;;;;;;;22.82;59.91;100930.34;126277;1099;104268;-76
2021/08/23 07:36:41;;;;;;;11.83;6.10;;;;;;;22.82;59.28;100933.89;126197;1099;104246;-76
2021/08/23 07:39:12;;;;;;;15.87;7.53;;;;;;;22.86;58.98;100929.39;126217;1099;104146;-76
2021/08/23 07:41:43;;;;;;;15.50;7.20;;;;;;;22.93;59.10;100932.00;125306;1099;104293;-76
2021/08/23 07:44:15;;;;;;;17.10;7.43;;;;;;;23.01;59.23;100934.61;126292;1099;104159;-77
2021/08/23 07:46:45;;;;;;;15.13;7.50;;;;;;;23.11;58.89;100927.45;126220;1099;104169;-77
2021/08/23 07:49:17;;;;;;;18.87;7.73;;;;;;;23.17;58.79;100919.36;125334;1099;104226;-76
2021/08/23 07:51:50;;;;;;;18.37;7.87;;;;;;;23.22;58.47;100917.52;125365;1099;104366;-78
2021/08/23 07:54:22;;;;;;;14.40;6.83;;;;;;;23.33;58.43;100920.09;126308;1099;104150;-78
2021/08/23 07:56:58;;;;;;;17.63;7.87;;;;;;;23.44;58.27;100915.50;125409;1099;104136;-78
2021/08/23 07:59:33;;;;;;;19.90;8.40;;;;;;;23.62;57.58;100916.19;125340;1099;104313;-78
2021/08/23 08:02:10;;;;;;;16.43;7.50;;;;;;;23.77;57.54;100907.09;126119;1098;104134;-77
2021/08/23 08:04:43;;;;;;;18.53;8.03;;;;;;;23.86;56.58;100905.20;125140;1102;104226;-79
2021/08/23 08:07:14;;;;;;;19.40;7.97;;;;;;;23.94;56.66;100909.59;125297;1099;104203;-78
2021/08/23 08:09:48;;;;;;;19.73;8.27;;;;;;;24.05;56.55;100913.01;126199;1099;104233;-79
2021/08/23 08:12:28;;;;;;;18.60;8.77;;;;;;;24.17;56.52;100911.97;125279;1099;104220;-77
2021/08/23 08:15:05;;;;;;;21.87;8.33;;;;;;;24.19;55.51;100902.09;125537;1099;104389;-79
2021/08/23 08:17:38;;;;;;;16.90;7.37;;;;;;;24.32;55.67;100902.80;126293;1099;104185;-77
2021/08/23 08:20:14;;;;;;;17.87;8.00;;;;;;;24.43;54.94;100906.19;126270;1099;104287;-80
2021/08/23 08:22:48;;;;;;;20.83;7.30;;;;;;;24.51;55.03;100908.76;126105;1099;104157;-79
2021/08/23 08:25:20;;;;;;;16.37;6.67;;;;;;;24.58;53.40;100911.36;126208;1099;104194;-79
2021/08/23 08:27:56;;;;;;;16.40;5.70;;;;;;;24.65;54.19;100916.62;126249;1099;104248;-76
2021/08/23 08:30:30;;;;;;;18.13;7.03;;;;;;;24.74;53.67;100905.75;125198;1102;104134;-78
2021/08/23 08:33:02;;;;;;;18.00;6.93;;;;;;;24.80;52.95;100907.45;125757;1099;104216;-77
2021/08/23 08:35:36;;;;;;;14.63;6.13;;;;;;;24.85;52.51;100903.76;125232;1099;104188;-77
2021/08/23 08:38:10;;;;;;;15.60;5.87;;;;;;;24.97;52.54;100909.85;125507;1099;104171;-79
2021/08/23 08:40:45;;;;;;;14.10;6.23;;;;;;;25.07;51.41;100901.61;126218;1099;104752;-78
2021/08/23 08:43:17;;;;;;;13.13;5.60;;;;;;;25.21;51.04;100895.08;126137;1099;104576;-76
2021/08/23 08:45:50;;;;;;;12.70;5.20;;;;;;;25.36;51.19;100899.33;126269;1099;104152;-78
2021/08/23 08:48:24;;;;;;;14.37;5.57;;;;;;;25.47;50.43;100899.99;126154;1098;104143;-79
2021/08/23 08:50:58;;;;;;;12.87;5.40;;;;;;;25.57;49.59;100900.69;125243;1099;104146;-79
2021/08/23 08:53:31;;;;;;;12.13;5.63;;;;;;;25.64;50.03;100902.34;125287;1099;104246;-78
2021/08/23 08:56:07;;;;;;;13.00;4.90;;;;;;;25.70;49.26;100894.16;126297;1099;104197;-78
2021/08/23 08:58:43;;;;;;;11.23;5.00;;;;;;;25.71;48.86;100906.69;126290;1099;104149;-78
2021/08/23 09:01:18;;;;;;;13.00;4.80;;;;;;;25.75;48.84;100896.75;125291;1099;104246;-79
2021/08/23 09:03:51;;;;;;;9.47;4.77;;;;;;;25.77;47.75;100902.97;126159;1099;104149;-78
2021/08/23 09:06:24;;;;;;;11.23;5.30;;;;;;;25.79;47.89;100902.03;126232;1098;104140;-79
2021/08/23 09:09:03;;;;;;;11.27;5.07;;;;;;;25.87;47.57;100898.27;125219;1102;104197;-78
2021/08/23 09:11:38;;;;;;;12.17;4.50;;;;;;;25.89;47.11;100885.70;126049;1099;104231;-79
2021/08/23 09:14:11;;;;;;;10.43;4.60;;;;;;;25.89;46.78;100893.77;125236;1099;104306;-77
2021/08/23 09:16:44;;;;;;;12.13;4.57;;;;;;;25.86;46.24;100891.15;126173;1099;104192;-77
2021/08/23 09:19:26;;;;;;;13.53;5.03;;;;;;;25.84;46.13;100888.48;125204;1099;104293;-77
2021/08/23 09:22:03;;;;;;;9.33;4.90;;;;;;;25.81;45.92;100885.88;126313;1099;104194;-78
2021/08/23 09:24:36;;;;;;;8.83;4.83;;;;;;;25.86;46.33;100880.39;126223;1099;104191;-79
2021/08/23 09:27:11;;;;;;;12.50;5.03;;;;;;;26.00;45.93;100881.00;126292;1099;104271;-78
2021/08/23 09:29:59;;;;;;;7.83;4.23;;;;;;;26.17;45.93;100873.43;126248;1099;104140;-78
2021/08/23 09:32:36;;;;;;;11.77;4.50;;;;;;;26.29;45.20;100871.39;126254;1099;104162;-78
2021/08/23 09:35:10;;;;;;;10.70;4.33;;;;;;;26.25;43.99;100864.31;126231;1099;104134;-78
2021/08/23 09:37:52;;;;;;;8.87;4.30;;;;;;;26.19;43.01;100868.92;126261;1099;104280;-76
2021/08/23 09:40:32;;;;;;;8.15;3.87;;;;;;;26.24;43.25;100868.81;126224;1099;104226;-78
2021/08/23 09:43:13;;;;;;;6.10;3.50;;;;;;;26.31;43.24;100858.78;125318;1099;104226;-77
2021/08/23 09:45:50;;;;;;;6.70;4.03;;;;;;;26.35;42.75;100863.15;126299;1099;109935;-78
2021/08/23 09:48:26;;;;;;;10.50;3.90;;;;;;;26.36;42.54;100864.93;125445;1099;104178;-78
2021/08/23 09:51:04;;;;;;;9.77;4.07;;;;;;;26.43;42.50;100863.87;126211;1099;104188;-79
2021/08/23 09:53:36;;;;;;;7.97;4.50;;;;;;;26.48;41.74;100863.77;125171;1099;104175;-76
2021/08/23 09:56:08;;;;;;;6.63;3.83;;;;;;;26.52;41.32;100869.03;126274;1099;104249;-77
2021/08/23 09:58:40;;;;;;;8.70;3.80;;;;;;;26.51;41.31;100866.38;126218;1099;104602;-75
2021/08/23 10:01:11;;;;;;;10.10;4.20;;;;;;;26.59;41.04;100858.11;125332;1099;104300;-76
2021/08/23 10:03:46;;;;;;;8.53;4.37;;;;;;;26.67;41.50;100859.70;125160;1099;104281;-77
2021/08/23 10:06:19;;;;;;;9.57;4.00;;;;;;;26.73;41.20;100859.55;124972;1099;108177;-77
2021/08/23 10:08:51;;;;;;;7.23;3.87;;;;;;;26.68;39.74;100860.61;125892;1099;104159;-77
2021/08/23 10:11:26;;;;;;;6.87;3.80;;;;;;;26.64;39.64;100859.75;126068;1099;104198;-79
2021/08/23 10:14:00;;;;;;;9.77;4.87;;;;;;;26.66;39.88;100854.36;125232;1099;104306;-78
2021/08/23 10:16:36;;;;;;;9.60;4.40;;;;;;;26.68;40.22;100853.41;126111;1099;117291;-78
2021/08/23 10:19:14;;;;;;;9.63;4.80;;;;;;;26.78;40.53;100847.79;125981;1099;104293;-78
2021/08/23 10:21:48;;;;;;;9.17;4.47;;;;;;;26.88;40.36;100858.27;126056;1099;104306;-79
2021/08/23 10:24:24;;;;;;;8.90;4.83;;;;;;;26.99;40.31;100849.00;125896;1099;104137;-78
2021/08/23 10:26:58;;;;;;;10.00;4.50;;;;;;;27.09;40.06;100847.84;125141;1099;104178;-78
2021/08/23 10:29:41;;;;;;;12.07;4.27;;;;;;;27.08;39.57;100841.59;126113;1099;104288;-78
2021/08/23 10:32:19;;;;;;;10.53;4.77;;;;;;;27.10;39.44;100838.85;126102;1099;104160;-78
2021/08/23 10:34:53;;;;;;;12.23;4.87;;;;;;;27.16;39.41;100837.77;126093;1099;104175;-78
2021/08/23 10:37:31;;;;;;;9.83;4.63;;;;;;;27.26;39.55;100837.48;125969;1099;104175;-77
2021/08/23 10:40:04;;;;;;;7.67;4.43;;;;;;;27.29;38.76;100830.25;126115;1099;104448;-78
2021/08/23 10:42:40;;;;;;;9.03;4.58;;;;;;;27.32;38.98;100833.77;126124;1099;104191;-77
2021/08/23 10:45:15;;;;;;;9.63;4.80;;;;;;;27.32;37.78;100833.77;126101;1099;104249;-77
2021/08/23 10:48:08;;;;;;;9.60;5.00;;;;;;;27.36;38.10;100830.07;126102;1098;104526;-79
2021/08/23 10:51:04;;;;;;;11.75;4.87;;;;;;;27.44;38.43;100828.03;125177;1102;104367;-78
2021/08/23 10:53:49;;;;;;;9.67;4.23;;;;;;;27.45;38.26;100823.51;125209;1102;104300;-78
2021/08/23 10:56:22;;;;;;;11.40;4.80;;;;;;;27.46;38.30;100822.59;125078;1102;105684;-77
2021/08/23 10:58:56;;;;;;;12.23;4.60;;;;;;;27.51;38.39;100823.33;125078;1102;104225;-79
2021/08/23 11:01:29;;;;;;;9.13;4.30;;;;;;;27.50;38.11;100824.25;125159;1102;104318;-77
2021/08/23 11:04:07;;;;;;;12.07;4.97;;;;;;;27.48;36.91;100827.94;125209;1102;104344;-76
2021/08/23 11:06:49;;;;;;;8.97;4.47;;;;;;;27.52;37.43;100819.72;125116;1101;104162;-76
2021/08/23 11:09:33;;;;;;;11.00;5.00;;;;;;;27.62;38.05;100817.63;125234;1102;104358;-76
2021/08/23 11:12:11;;;;;;;9.70;4.40;;;;;;;27.69;37.64;100823.70;125218;1102;104159;-77
2021/08/23 11:14:50;;;;;;;10.60;4.43;;;;;;;27.70;37.49;100826.34;125283;1102;104251;-77
2021/08/23 11:17:34;;;;;;;9.85;4.15;;;;;;;27.72;37.63;100829.00;126140;1099;104294;-77
2021/08/23 11:20:11;;;;;;;8.40;4.40;;;;;;;27.73;37.49;100820.86;126205;1099;104156;-77
2021/08/23 11:22:42;;;;;;;9.17;4.07;;;;;;;27.74;37.41;100819.95;125185;1099;104253;-76
2021/08/23 11:25:14;;;;;;;10.27;4.60;;;;;;;27.75;37.45;100823.52;126242;1099;104313;-75
2021/08/23 11:27:53;;;;;;;13.55;4.45;;;;;;;27.72;37.00;100819.13;126224;1099;104226;-77